sensor_id;sensor_type;location;lat;lon;timestamp;temperature;humidity
40077;DHT22;25777;47.824;18.982;2023-03-26T00:00:26;6.80;99.90
40077;DHT22;25777;47.824;18.982;2023-03-26T00:03:00;6.80;99.90
40077;DHT22;25777;47.824;18.982;2023-03-26T00:05:27;6.70;99.90
40077;DHT22;25777;47.824;18.982;2023-03-26T00:07:55;6.80;99.90
40077;DHT22;25777;47.824;18.982;2023-03-26T00:10:31;6.70;99.90
40077;DHT22;25777;47.824;18.982;2023-03-26T00:12:58;6.70;99.90
40077;DHT22;25777;47.824;18.982;2023-03-26T00:15:24;6.70;99.90
40077;DHT22;25777;47.824;18.982;2023-03-26T00:17:58;6.70;99.90
40077;DHT22;25777;47.824;18.982;2023-03-26T00:20:27;6.70;99.90
40077;DHT22;25777;47.824;18.982;2023-03-26T00:22:54;6.60;99.90
40077;DHT22;25777;47.824;18.982;2023-03-26T00:25:29;6.60;99.90
40077;DHT22;25777;47.824;18.982;2023-03-26T00:27:58;6.60;99.90
40077;DHT22;25777;47.824;18.982;2023-03-26T00:30:37;6.60;99.90
40077;DHT22;25777;47.824;18.982;2023-03-26T00:33:17;6.60;99.90
40077;DHT22;25777;47.824;18.982;2023-03-26T00:35:52;6.50;99.90
40077;DHT22;25777;47.824;18.982;2023-03-26T00:38:27;6.50;99.90
40077;DHT22;25777;47.824;18.982;2023-03-26T00:41:09;6.40;99.90
40077;DHT22;25777;47.824;18.982;2023-03-26T00:46:38;6.40;99.90
40077;DHT22;25777;47.824;18.982;2023-03-26T00:49:12;6.30;99.90
40077;DHT22;25777;47.824;18.982;2023-03-26T00:51:43;6.40;99.90
40077;DHT22;25777;47.824;18.982;2023-03-26T00:54:14;6.30;99.90
40077;DHT22;25777;47.824;18.982;2023-03-26T00:56:40;6.50;99.90
40077;DHT22;25777;47.824;18.982;2023-03-26T00:59:09;6.40;99.90
40077;DHT22;25777;47.824;18.982;2023-03-26T01:01:36;6.40;99.90
40077;DHT22;25777;47.824;18.982;2023-03-26T01:04:27;6.40;99.90
40077;DHT22;25777;47.824;18.982;2023-03-26T01:07:00;6.30;99.90
40077;DHT22;25777;47.824;18.982;2023-03-26T01:09:34;6.30;99.90
40077;DHT22;25777;47.824;18.982;2023-03-26T01:12:06;6.20;99.90
40077;DHT22;25777;47.824;18.982;2023-03-26T01:14:34;6.20;99.90
40077;DHT22;25777;47.824;18.982;2023-03-26T01:17:04;6.20;99.90
40077;DHT22;25777;47.824;18.982;2023-03-26T01:19:51;6.10;99.90
40077;DHT22;25777;47.824;18.982;2023-03-26T01:22:22;6.10;99.90
40077;DHT22;25777;47.824;18.982;2023-03-26T01:24:52;6.10;99.90
40077;DHT22;25777;47.824;18.982;2023-03-26T01:27:47;6.00;99.90
40077;DHT22;25777;47.824;18.982;2023-03-26T01:40:44;6.00;99.90
40077;DHT22;25777;47.824;18.982;2023-03-26T01:45:50;5.80;99.90
40077;DHT22;25777;47.824;18.982;2023-03-26T01:48:43;5.70;99.90
40077;DHT22;25777;47.824;18.982;2023-03-26T01:51:23;5.60;99.90
40077;DHT22;25777;47.824;18.982;2023-03-26T01:53:53;5.60;99.90
40077;DHT22;25777;47.824;18.982;2023-03-26T01:56:45;5.60;99.90
40077;DHT22;25777;47.824;18.982;2023-03-26T02:02:31;5.80;99.90
40077;DHT22;25777;47.824;18.982;2023-03-26T02:10:56;6.00;99.90
40077;DHT22;25777;47.824;18.982;2023-03-26T02:13:25;5.70;99.90
40077;DHT22;25777;47.824;18.982;2023-03-26T02:16:00;5.60;99.90
40077;DHT22;25777;47.824;18.982;2023-03-26T02:18:34;5.50;99.90
40077;DHT22;25777;47.824;18.982;2023-03-26T02:21:08;5.20;99.90
40077;DHT22;25777;47.824;18.982;2023-03-26T02:23:36;5.10;99.90
40077;DHT22;25777;47.824;18.982;2023-03-26T02:26:11;5.10;99.90
40077;DHT22;25777;47.824;18.982;2023-03-26T02:28:44;4.90;99.90
40077;DHT22;25777;47.824;18.982;2023-03-26T02:31:11;4.80;99.90
40077;DHT22;25777;47.824;18.982;2023-03-26T02:33:48;4.70;99.90
40077;DHT22;25777;47.824;18.982;2023-03-26T02:36:18;4.70;99.90
40077;DHT22;25777;47.824;18.982;2023-03-26T02:38:49;4.70;99.90
40077;DHT22;25777;47.824;18.982;2023-03-26T02:41:25;4.40;99.90
40077;DHT22;25777;47.824;18.982;2023-03-26T02:43:51;4.20;99.90
40077;DHT22;25777;47.824;18.982;2023-03-26T02:46:25;4.30;99.90
40077;DHT22;25777;47.824;18.982;2023-03-26T02:48:59;4.20;99.90
40077;DHT22;25777;47.824;18.982;2023-03-26T02:51:49;4.20;99.90
40077;DHT22;25777;47.824;18.982;2023-03-26T02:54:15;4.10;99.90
40077;DHT22;25777;47.824;18.982;2023-03-26T02:56:42;3.80;99.90
40077;DHT22;25777;47.824;18.982;2023-03-26T02:59:15;3.90;99.90
40077;DHT22;25777;47.824;18.982;2023-03-26T03:01:49;3.80;99.90
40077;DHT22;25777;47.824;18.982;2023-03-26T03:04:31;3.80;99.90
40077;DHT22;25777;47.824;18.982;2023-03-26T03:06:56;3.70;99.90
40077;DHT22;25777;47.824;18.982;2023-03-26T03:09:24;3.70;99.90
40077;DHT22;25777;47.824;18.982;2023-03-26T03:11:50;3.60;99.90
40077;DHT22;25777;47.824;18.982;2023-03-26T03:14:24;3.50;99.90
40077;DHT22;25777;47.824;18.982;2023-03-26T03:16:50;3.40;99.90
40077;DHT22;25777;47.824;18.982;2023-03-26T03:19:21;3.40;99.90
40077;DHT22;25777;47.824;18.982;2023-03-26T03:21:47;3.50;99.90
40077;DHT22;25777;47.824;18.982;2023-03-26T03:24:20;3.60;99.90
40077;DHT22;25777;47.824;18.982;2023-03-26T03:26:49;3.50;99.90
40077;DHT22;25777;47.824;18.982;2023-03-26T03:29:19;3.30;99.90
40077;DHT22;25777;47.824;18.982;2023-03-26T03:31:45;3.30;99.90
40077;DHT22;25777;47.824;18.982;2023-03-26T03:34:23;3.30;99.90
40077;DHT22;25777;47.824;18.982;2023-03-26T03:36:51;3.20;99.90
40077;DHT22;25777;47.824;18.982;2023-03-26T03:39:27;3.20;99.90
40077;DHT22;25777;47.824;18.982;2023-03-26T03:41:53;3.00;99.90
40077;DHT22;25777;47.824;18.982;2023-03-26T03:44:44;3.00;99.90
40077;DHT22;25777;47.824;18.982;2023-03-26T03:47:10;3.10;99.90
40077;DHT22;25777;47.824;18.982;2023-03-26T03:49:39;3.10;99.90
40077;DHT22;25777;47.824;18.982;2023-03-26T03:52:06;3.00;99.90
40077;DHT22;25777;47.824;18.982;2023-03-26T03:54:32;3.00;99.90
40077;DHT22;25777;47.824;18.982;2023-03-26T03:57:01;3.00;99.90
40077;DHT22;25777;47.824;18.982;2023-03-26T03:59:30;2.90;99.90
40077;DHT22;25777;47.824;18.982;2023-03-26T04:05:01;2.80;99.90
40077;DHT22;25777;47.824;18.982;2023-03-26T04:07:35;2.90;99.90
40077;DHT22;25777;47.824;18.982;2023-03-26T04:10:01;2.80;99.90
40077;DHT22;25777;47.824;18.982;2023-03-26T04:12:30;3.00;99.90
40077;DHT22;25777;47.824;18.982;2023-03-26T04:14:58;3.10;99.90
40077;DHT22;25777;47.824;18.982;2023-03-26T04:17:25;2.90;99.90
40077;DHT22;25777;47.824;18.982;2023-03-26T04:19:59;3.00;99.90
40077;DHT22;25777;47.824;18.982;2023-03-26T04:22:41;2.90;99.90
40077;DHT22;25777;47.824;18.982;2023-03-26T04:25:15;2.80;99.90
40077;DHT22;25777;47.824;18.982;2023-03-26T04:27:48;2.70;99.90
40077;DHT22;25777;47.824;18.982;2023-03-26T04:30:20;2.50;99.90
40077;DHT22;25777;47.824;18.982;2023-03-26T04:32:46;2.60;99.90
40077;DHT22;25777;47.824;18.982;2023-03-26T04:35:15;2.50;99.90
40077;DHT22;25777;47.824;18.982;2023-03-26T04:37:49;2.50;99.90
40077;DHT22;25777;47.824;18.982;2023-03-26T04:40:19;2.50;99.90
40077;DHT22;25777;47.824;18.982;2023-03-26T04:42:45;2.50;99.90
40077;DHT22;25777;47.824;18.982;2023-03-26T04:45:19;2.60;99.90
40077;DHT22;25777;47.824;18.982;2023-03-26T04:47:47;2.70;99.90
40077;DHT22;25777;47.824;18.982;2023-03-26T04:50:19;2.70;99.90
40077;DHT22;25777;47.824;18.982;2023-03-26T04:52:46;2.70;99.90
40077;DHT22;25777;47.824;18.982;2023-03-26T04:55:19;2.90;99.90
40077;DHT22;25777;47.824;18.982;2023-03-26T04:57:49;2.90;99.90
40077;DHT22;25777;47.824;18.982;2023-03-26T05:00:25;2.80;99.90
40077;DHT22;25777;47.824;18.982;2023-03-26T05:02:53;2.90;99.90
40077;DHT22;25777;47.824;18.982;2023-03-26T05:05:28;3.00;99.90
40077;DHT22;25777;47.824;18.982;2023-03-26T05:07:57;3.10;99.90
40077;DHT22;25777;47.824;18.982;2023-03-26T05:10:25;3.20;99.90
40077;DHT22;25777;47.824;18.982;2023-03-26T05:12:51;3.00;99.90
40077;DHT22;25777;47.824;18.982;2023-03-26T05:15:20;3.10;99.90
40077;DHT22;25777;47.824;18.982;2023-03-26T05:17:59;3.30;99.90
40077;DHT22;25777;47.824;18.982;2023-03-26T05:20:31;3.40;99.90
40077;DHT22;25777;47.824;18.982;2023-03-26T05:22:59;3.30;99.90
40077;DHT22;25777;47.824;18.982;2023-03-26T05:25:25;3.40;99.90
40077;DHT22;25777;47.824;18.982;2023-03-26T05:27:53;3.60;99.90
40077;DHT22;25777;47.824;18.982;2023-03-26T05:30:21;3.70;99.90
40077;DHT22;25777;47.824;18.982;2023-03-26T05:33:01;3.90;99.90
40077;DHT22;25777;47.824;18.982;2023-03-26T05:35:27;3.90;99.90
40077;DHT22;25777;47.824;18.982;2023-03-26T05:37:53;4.10;99.90
40077;DHT22;25777;47.824;18.982;2023-03-26T05:40:26;4.40;99.90
40077;DHT22;25777;47.824;18.982;2023-03-26T05:42:53;4.60;99.90
40077;DHT22;25777;47.824;18.982;2023-03-26T05:45:20;4.80;99.90
40077;DHT22;25777;47.824;18.982;2023-03-26T05:47:48;4.90;99.90
40077;DHT22;25777;47.824;18.982;2023-03-26T05:50:44;5.00;99.90
40077;DHT22;25777;47.824;18.982;2023-03-26T05:53:12;5.20;99.90
40077;DHT22;25777;47.824;18.982;2023-03-26T05:55:39;5.30;99.90
40077;DHT22;25777;47.824;18.982;2023-03-26T05:58:08;5.50;99.90
40077;DHT22;25777;47.824;18.982;2023-03-26T06:00:34;5.80;99.90
40077;DHT22;25777;47.824;18.982;2023-03-26T06:03:04;6.00;99.90
40077;DHT22;25777;47.824;18.982;2023-03-26T06:05:35;6.60;99.90
40077;DHT22;25777;47.824;18.982;2023-03-26T06:08:07;7.10;99.90
40077;DHT22;25777;47.824;18.982;2023-03-26T06:10:37;7.20;99.90
40077;DHT22;25777;47.824;18.982;2023-03-26T06:13:04;7.30;99.90
40077;DHT22;25777;47.824;18.982;2023-03-26T06:15:31;7.50;99.90
40077;DHT22;25777;47.824;18.982;2023-03-26T06:18:07;7.60;99.90
40077;DHT22;25777;47.824;18.982;2023-03-26T06:20:33;7.80;99.90
40077;DHT22;25777;47.824;18.982;2023-03-26T06:23:01;8.00;99.90
40077;DHT22;25777;47.824;18.982;2023-03-26T06:25:28;8.30;99.90
40077;DHT22;25777;47.824;18.982;2023-03-26T06:27:54;8.40;99.90
40077;DHT22;25777;47.824;18.982;2023-03-26T06:30:30;8.60;99.90
40077;DHT22;25777;47.824;18.982;2023-03-26T06:32:56;8.90;99.90
40077;DHT22;25777;47.824;18.982;2023-03-26T06:35:22;9.20;99.90
40077;DHT22;25777;47.824;18.982;2023-03-26T06:37:51;9.20;99.90
40077;DHT22;25777;47.824;18.982;2023-03-26T06:40:23;9.50;99.90
40077;DHT22;25777;47.824;18.982;2023-03-26T06:42:57;9.80;99.90
40077;DHT22;25777;47.824;18.982;2023-03-26T06:45:37;10.00;99.40
40077;DHT22;25777;47.824;18.982;2023-03-26T06:48:04;10.30;98.10
40077;DHT22;25777;47.824;18.982;2023-03-26T06:50:32;10.40;97.50
40077;DHT22;25777;47.824;18.982;2023-03-26T06:53:00;10.50;96.00
40077;DHT22;25777;47.824;18.982;2023-03-26T06:55:27;10.60;95.10
40077;DHT22;25777;47.824;18.982;2023-03-26T06:57:58;10.80;95.50
40077;DHT22;25777;47.824;18.982;2023-03-26T07:00:23;11.00;93.80
40077;DHT22;25777;47.824;18.982;2023-03-26T07:02:56;11.20;93.50
40077;DHT22;25777;47.824;18.982;2023-03-26T07:05:35;11.30;93.00
40077;DHT22;25777;47.824;18.982;2023-03-26T07:08:01;11.50;92.70
40077;DHT22;25777;47.824;18.982;2023-03-26T07:10:35;11.70;92.20
40077;DHT22;25777;47.824;18.982;2023-03-26T07:13:03;11.90;91.50
40077;DHT22;25777;47.824;18.982;2023-03-26T07:15:32;12.00;90.50
40077;DHT22;25777;47.824;18.982;2023-03-26T07:18:28;12.20;87.00
40077;DHT22;25777;47.824;18.982;2023-03-26T07:20:56;12.40;87.10
40077;DHT22;25777;47.824;18.982;2023-03-26T07:23:25;12.30;87.70
40077;DHT22;25777;47.824;18.982;2023-03-26T07:25:52;12.20;90.10
40077;DHT22;25777;47.824;18.982;2023-03-26T07:28:27;12.10;88.10
40077;DHT22;25777;47.824;18.982;2023-03-26T07:37:26;12.60;86.40
40077;DHT22;25777;47.824;18.982;2023-03-26T07:42:50;12.50;86.20
40077;DHT22;25777;47.824;18.982;2023-03-26T07:45:36;12.50;85.50
40077;DHT22;25777;47.824;18.982;2023-03-26T07:48:26;12.50;81.60
40077;DHT22;25777;47.824;18.982;2023-03-26T07:50:56;12.40;84.20
40077;DHT22;25777;47.824;18.982;2023-03-26T07:53:31;12.40;83.20
40077;DHT22;25777;47.824;18.982;2023-03-26T07:56:05;12.40;82.10
40077;DHT22;25777;47.824;18.982;2023-03-26T07:58:55;12.70;83.40
40077;DHT22;25777;47.824;18.982;2023-03-26T08:07:04;12.40;83.20
40077;DHT22;25777;47.824;18.982;2023-03-26T08:15:36;12.20;83.90
40077;DHT22;25777;47.824;18.982;2023-03-26T08:21:10;12.30;82.80
40077;DHT22;25777;47.824;18.982;2023-03-26T08:24:19;12.20;82.60
40077;DHT22;25777;47.824;18.982;2023-03-26T08:30:21;12.10;86.20
40077;DHT22;25777;47.824;18.982;2023-03-26T08:32:59;12.10;82.70
40077;DHT22;25777;47.824;18.982;2023-03-26T08:35:30;12.20;82.60
40077;DHT22;25777;47.824;18.982;2023-03-26T08:37:58;12.00;85.20
40077;DHT22;25777;47.824;18.982;2023-03-26T09:06:25;13.20;82.80
40077;DHT22;25777;47.824;18.982;2023-03-26T09:09:29;13.50;80.10
40077;DHT22;25777;47.824;18.982;2023-03-26T09:26:25;12.80;78.30
40077;DHT22;25777;47.824;18.982;2023-03-26T09:40:52;13.00;78.50
40077;DHT22;25777;47.824;18.982;2023-03-26T09:46:37;13.00;78.90
40077;DHT22;25777;47.824;18.982;2023-03-26T09:52:30;13.10;78.90
40077;DHT22;25777;47.824;18.982;2023-03-26T09:55:21;13.20;76.00
40077;DHT22;25777;47.824;18.982;2023-03-26T10:13:04;15.40;70.30
40077;DHT22;25777;47.824;18.982;2023-03-26T10:18:56;15.40;65.80
40077;DHT22;25777;47.824;18.982;2023-03-26T10:29:36;15.80;64.50
40077;DHT22;25777;47.824;18.982;2023-03-26T10:40:50;16.80;66.10
40077;DHT22;25777;47.824;18.982;2023-03-26T10:52:12;17.50;62.00
40077;DHT22;25777;47.824;18.982;2023-03-26T10:54:55;17.40;59.00
40077;DHT22;25777;47.824;18.982;2023-03-26T11:00:32;17.50;61.10
40077;DHT22;25777;47.824;18.982;2023-03-26T11:03:09;17.80;61.40
40077;DHT22;25777;47.824;18.982;2023-03-26T11:08:54;17.50;58.60
40077;DHT22;25777;47.824;18.982;2023-03-26T11:11:34;17.70;58.00
40077;DHT22;25777;47.824;18.982;2023-03-26T11:14:24;18.10;57.90
40077;DHT22;25777;47.824;18.982;2023-03-26T11:17:07;18.50;57.60
40077;DHT22;25777;47.824;18.982;2023-03-26T11:22:37;17.90;56.60
40077;DHT22;25777;47.824;18.982;2023-03-26T11:25:39;18.20;57.10
40077;DHT22;25777;47.824;18.982;2023-03-26T11:33:38;18.80;56.30
40077;DHT22;25777;47.824;18.982;2023-03-26T11:36:17;18.70;56.00
40077;DHT22;25777;47.824;18.982;2023-03-26T11:38:46;18.10;56.00
40077;DHT22;25777;47.824;18.982;2023-03-26T11:41:22;18.30;56.80
40077;DHT22;25777;47.824;18.982;2023-03-26T11:43:54;17.90;54.90
40077;DHT22;25777;47.824;18.982;2023-03-26T11:46:25;18.10;55.60
40077;DHT22;25777;47.824;18.982;2023-03-26T11:49:07;17.90;57.70
40077;DHT22;25777;47.824;18.982;2023-03-26T11:51:48;18.00;55.10
40077;DHT22;25777;47.824;18.982;2023-03-26T11:54:14;18.10;52.30
40077;DHT22;25777;47.824;18.982;2023-03-26T12:00:03;17.50;54.70
40077;DHT22;25777;47.824;18.982;2023-03-26T12:02:40;18.00;54.60
40077;DHT22;25777;47.824;18.982;2023-03-26T12:05:18;17.70;52.50
40077;DHT22;25777;47.824;18.982;2023-03-26T12:08:16;17.10;53.20
40077;DHT22;25777;47.824;18.982;2023-03-26T12:10:43;17.20;54.40
40077;DHT22;25777;47.824;18.982;2023-03-26T12:18:33;17.20;52.40
40077;DHT22;25777;47.824;18.982;2023-03-26T12:21:06;17.20;53.40
40077;DHT22;25777;47.824;18.982;2023-03-26T12:26:42;17.20;52.50
40077;DHT22;25777;47.824;18.982;2023-03-26T12:29:14;17.20;55.80
40077;DHT22;25777;47.824;18.982;2023-03-26T12:34:20;17.40;55.10
40077;DHT22;25777;47.824;18.982;2023-03-26T12:36:59;17.10;54.40
40077;DHT22;25777;47.824;18.982;2023-03-26T12:39:45;17.40;55.80
40077;DHT22;25777;47.824;18.982;2023-03-26T12:42:24;17.90;54.90
40077;DHT22;25777;47.824;18.982;2023-03-26T12:44:52;17.90;54.20
40077;DHT22;25777;47.824;18.982;2023-03-26T12:47:31;17.90;53.40
40077;DHT22;25777;47.824;18.982;2023-03-26T12:50:04;17.40;53.80
40077;DHT22;25777;47.824;18.982;2023-03-26T12:55:53;17.10;55.50
40077;DHT22;25777;47.824;18.982;2023-03-26T12:59:05;17.00;53.00
40077;DHT22;25777;47.824;18.982;2023-03-26T13:04:53;16.70;55.40
40077;DHT22;25777;47.824;18.982;2023-03-26T13:07:40;16.60;56.00
40077;DHT22;25777;47.824;18.982;2023-03-26T13:27:30;16.30;53.80
40077;DHT22;25777;47.824;18.982;2023-03-26T13:33:20;16.10;57.10
40077;DHT22;25777;47.824;18.982;2023-03-26T13:36:15;16.00;55.00
40077;DHT22;25777;47.824;18.982;2023-03-26T13:42:16;16.60;54.40
40077;DHT22;25777;47.824;18.982;2023-03-26T13:45:50;17.20;53.70
40077;DHT22;25777;47.824;18.982;2023-03-26T13:48:07;17.20;52.00
40077;DHT22;25777;47.824;18.982;2023-03-26T13:50:42;16.90;55.00
40077;DHT22;25777;47.824;18.982;2023-03-26T13:53:20;16.60;53.50
40077;DHT22;25777;47.824;18.982;2023-03-26T13:55:52;16.50;54.80
40077;DHT22;25777;47.824;18.982;2023-03-26T13:58:42;16.30;54.40
40077;DHT22;25777;47.824;18.982;2023-03-26T14:01:48;16.40;55.10
40077;DHT22;25777;47.824;18.982;2023-03-26T14:04:26;16.50;55.90
40077;DHT22;25777;47.824;18.982;2023-03-26T14:30:03;18.20;59.00
40077;DHT22;25777;47.824;18.982;2023-03-26T14:38:12;18.00;52.50
40077;DHT22;25777;47.824;18.982;2023-03-26T14:49:06;16.90;52.70
40077;DHT22;25777;47.824;18.982;2023-03-26T14:52:01;16.70;53.10
40077;DHT22;25777;47.824;18.982;2023-03-26T14:54:45;16.70;51.30
40077;DHT22;25777;47.824;18.982;2023-03-26T15:06:31;16.50;51.60
40077;DHT22;25777;47.824;18.982;2023-03-26T15:27:33;16.40;48.80
40077;DHT22;25777;47.824;18.982;2023-03-26T15:36:54;16.30;49.50
40077;DHT22;25777;47.824;18.982;2023-03-26T15:45:44;16.30;51.30
40077;DHT22;25777;47.824;18.982;2023-03-26T15:48:16;16.30;50.50
40077;DHT22;25777;47.824;18.982;2023-03-26T15:59:17;16.10;51.90
40077;DHT22;25777;47.824;18.982;2023-03-26T16:04:49;15.90;51.90
40077;DHT22;25777;47.824;18.982;2023-03-26T16:10:26;15.70;53.20
40077;DHT22;25777;47.824;18.982;2023-03-26T16:22:05;14.70;59.90
40077;DHT22;25777;47.824;18.982;2023-03-26T16:24:42;14.60;58.00
40077;DHT22;25777;47.824;18.982;2023-03-26T16:33:08;13.80;62.60
40077;DHT22;25777;47.824;18.982;2023-03-26T16:55:16;12.80;69.10
40077;DHT22;25777;47.824;18.982;2023-03-26T16:58:28;12.70;69.80
40077;DHT22;25777;47.824;18.982;2023-03-26T17:03:44;12.40;72.10
40077;DHT22;25777;47.824;18.982;2023-03-26T17:09:26;12.10;73.70
40077;DHT22;25777;47.824;18.982;2023-03-26T17:17:45;11.70;75.80
40077;DHT22;25777;47.824;18.982;2023-03-26T17:23:21;11.60;77.50
40077;DHT22;25777;47.824;18.982;2023-03-26T17:26:15;11.40;78.80
40077;DHT22;25777;47.824;18.982;2023-03-26T17:29:12;11.40;80.70
40077;DHT22;25777;47.824;18.982;2023-03-26T17:31:57;11.00;82.20
40077;DHT22;25777;47.824;18.982;2023-03-26T17:42:37;10.90;82.70
40077;DHT22;25777;47.824;18.982;2023-03-26T17:45:21;10.70;83.20
40077;DHT22;25777;47.824;18.982;2023-03-26T17:47:57;10.70;84.20
40077;DHT22;25777;47.824;18.982;2023-03-26T17:50:44;10.60;85.40
40077;DHT22;25777;47.824;18.982;2023-03-26T17:53:31;10.40;85.10
40077;DHT22;25777;47.824;18.982;2023-03-26T17:56:05;10.40;87.00
40077;DHT22;25777;47.824;18.982;2023-03-26T17:58:43;10.20;87.20
40077;DHT22;25777;47.824;18.982;2023-03-26T18:01:38;10.20;86.60
40077;DHT22;25777;47.824;18.982;2023-03-26T18:04:13;10.30;86.80
40077;DHT22;25777;47.824;18.982;2023-03-26T18:14:04;10.40;87.50
40077;DHT22;25777;47.824;18.982;2023-03-26T18:16:17;10.40;87.30
40077;DHT22;25777;47.824;18.982;2023-03-26T18:18:53;10.40;88.20
40077;DHT22;25777;47.824;18.982;2023-03-26T18:21:47;10.40;87.00
40077;DHT22;25777;47.824;18.982;2023-03-26T18:24:22;10.60;86.20
40077;DHT22;25777;47.824;18.982;2023-03-26T18:29:59;10.50;89.90
40077;DHT22;25777;47.824;18.982;2023-03-26T18:32:29;10.40;89.10
40077;DHT22;25777;47.824;18.982;2023-03-26T18:35:13;10.40;90.60
40077;DHT22;25777;47.824;18.982;2023-03-26T18:40:18;10.30;90.20
40077;DHT22;25777;47.824;18.982;2023-03-26T18:42:58;10.40;90.20
40077;DHT22;25777;47.824;18.982;2023-03-26T18:45:28;10.30;89.80
40077;DHT22;25777;47.824;18.982;2023-03-26T18:50:36;10.50;90.30
40077;DHT22;25777;47.824;18.982;2023-03-26T18:53:26;10.50;89.40
40077;DHT22;25777;47.824;18.982;2023-03-26T18:55:58;10.50;89.60
40077;DHT22;25777;47.824;18.982;2023-03-26T18:58:33;10.50;90.30
40077;DHT22;25777;47.824;18.982;2023-03-26T19:01:05;10.50;90.20
40077;DHT22;25777;47.824;18.982;2023-03-26T19:03:39;10.40;90.60
40077;DHT22;25777;47.824;18.982;2023-03-26T19:06:13;10.50;91.10
40077;DHT22;25777;47.824;18.982;2023-03-26T19:08:43;10.40;90.50
40077;DHT22;25777;47.824;18.982;2023-03-26T19:11:14;10.50;91.30
40077;DHT22;25777;47.824;18.982;2023-03-26T19:13:42;10.40;91.30
40077;DHT22;25777;47.824;18.982;2023-03-26T19:16:24;10.50;91.00
40077;DHT22;25777;47.824;18.982;2023-03-26T19:18:52;10.40;92.10
40077;DHT22;25777;47.824;18.982;2023-03-26T19:21:25;10.40;91.20
40077;DHT22;25777;47.824;18.982;2023-03-26T19:23:52;10.50;91.50
40077;DHT22;25777;47.824;18.982;2023-03-26T19:26:20;10.50;91.90
40077;DHT22;25777;47.824;18.982;2023-03-26T19:28:51;10.50;91.70
40077;DHT22;25777;47.824;18.982;2023-03-26T19:31:22;10.40;92.50
40077;DHT22;25777;47.824;18.982;2023-03-26T19:34:12;10.40;92.90
40077;DHT22;25777;47.824;18.982;2023-03-26T19:37:02;10.30;92.90
40077;DHT22;25777;47.824;18.982;2023-03-26T19:39:46;10.30;93.60
40077;DHT22;25777;47.824;18.982;2023-03-26T19:42:32;10.30;93.90
40077;DHT22;25777;47.824;18.982;2023-03-26T19:45:03;10.30;93.90
40077;DHT22;25777;47.824;18.982;2023-03-26T19:47:49;10.30;93.90
40077;DHT22;25777;47.824;18.982;2023-03-26T19:50:25;10.30;93.90
40077;DHT22;25777;47.824;18.982;2023-03-26T19:55:40;10.20;95.10
40077;DHT22;25777;47.824;18.982;2023-03-26T19:58:11;10.20;94.60
40077;DHT22;25777;47.824;18.982;2023-03-26T20:00:40;10.30;94.50
40077;DHT22;25777;47.824;18.982;2023-03-26T20:03:07;10.20;95.40
40077;DHT22;25777;47.824;18.982;2023-03-26T20:05:33;10.30;94.70
40077;DHT22;25777;47.824;18.982;2023-03-26T20:08:19;10.40;94.90
40077;DHT22;25777;47.824;18.982;2023-03-26T20:10:57;10.10;95.40
40077;DHT22;25777;47.824;18.982;2023-03-26T20:13:25;10.20;96.70
40077;DHT22;25777;47.824;18.982;2023-03-26T20:16:14;10.10;97.00
40077;DHT22;25777;47.824;18.982;2023-03-26T20:18:42;10.20;97.20
40077;DHT22;25777;47.824;18.982;2023-03-26T20:21:11;10.30;96.30
40077;DHT22;25777;47.824;18.982;2023-03-26T20:23:38;10.20;96.60
40077;DHT22;25777;47.824;18.982;2023-03-26T20:26:12;10.20;97.50
40077;DHT22;25777;47.824;18.982;2023-03-26T20:28:39;10.20;97.90
40077;DHT22;25777;47.824;18.982;2023-03-26T20:31:10;10.20;97.00
40077;DHT22;25777;47.824;18.982;2023-03-26T20:33:39;10.20;96.80
40077;DHT22;25777;47.824;18.982;2023-03-26T20:36:10;10.30;97.50
40077;DHT22;25777;47.824;18.982;2023-03-26T20:38:40;10.30;97.40
40077;DHT22;25777;47.824;18.982;2023-03-26T20:41:13;10.20;98.30
40077;DHT22;25777;47.824;18.982;2023-03-26T20:43:40;10.10;98.30
40077;DHT22;25777;47.824;18.982;2023-03-26T20:46:16;10.20;98.60
40077;DHT22;25777;47.824;18.982;2023-03-26T20:48:46;10.20;97.30
40077;DHT22;25777;47.824;18.982;2023-03-26T20:51:20;10.60;94.10
40077;DHT22;25777;47.824;18.982;2023-03-26T20:53:48;11.40;91.80
40077;DHT22;25777;47.824;18.982;2023-03-26T20:56:16;11.50;92.50
40077;DHT22;25777;47.824;18.982;2023-03-26T20:58:46;11.40;93.30
40077;DHT22;25777;47.824;18.982;2023-03-26T21:01:19;11.20;94.40
40077;DHT22;25777;47.824;18.982;2023-03-26T21:03:46;10.70;99.90
40077;DHT22;25777;47.824;18.982;2023-03-26T21:06:12;10.40;99.90
40077;DHT22;25777;47.824;18.982;2023-03-26T21:08:42;10.10;99.90
40077;DHT22;25777;47.824;18.982;2023-03-26T21:11:36;9.90;99.90
40077;DHT22;25777;47.824;18.982;2023-03-26T21:14:13;9.80;99.90
40077;DHT22;25777;47.824;18.982;2023-03-26T21:16:41;9.70;99.90
40077;DHT22;25777;47.824;18.982;2023-03-26T21:19:08;9.70;99.90
40077;DHT22;25777;47.824;18.982;2023-03-26T21:21:51;9.70;99.90
40077;DHT22;25777;47.824;18.982;2023-03-26T21:24:43;9.60;99.90
40077;DHT22;25777;47.824;18.982;2023-03-26T21:27:38;9.60;99.90
40077;DHT22;25777;47.824;18.982;2023-03-26T21:30:12;9.60;99.90
40077;DHT22;25777;47.824;18.982;2023-03-26T21:32:40;9.70;99.90
40077;DHT22;25777;47.824;18.982;2023-03-26T21:35:06;9.70;99.90
40077;DHT22;25777;47.824;18.982;2023-03-26T21:37:34;9.70;99.90
40077;DHT22;25777;47.824;18.982;2023-03-26T21:40:00;9.70;99.90
40077;DHT22;25777;47.824;18.982;2023-03-26T21:42:41;9.60;99.90
40077;DHT22;25777;47.824;18.982;2023-03-26T21:45:08;9.50;99.90
40077;DHT22;25777;47.824;18.982;2023-03-26T21:47:34;9.50;99.90
40077;DHT22;25777;47.824;18.982;2023-03-26T21:50:01;9.50;99.90
40077;DHT22;25777;47.824;18.982;2023-03-26T21:52:28;9.50;99.90
40077;DHT22;25777;47.824;18.982;2023-03-26T21:54:59;9.50;99.90
40077;DHT22;25777;47.824;18.982;2023-03-26T21:57:39;9.40;99.90
40077;DHT22;25777;47.824;18.982;2023-03-26T22:00:12;9.30;99.90
40077;DHT22;25777;47.824;18.982;2023-03-26T22:05:17;9.40;99.90
40077;DHT22;25777;47.824;18.982;2023-03-26T22:07:55;9.30;99.90
40077;DHT22;25777;47.824;18.982;2023-03-26T22:10:25;9.30;99.90
40077;DHT22;25777;47.824;18.982;2023-03-26T22:12:58;9.40;99.90
40077;DHT22;25777;47.824;18.982;2023-03-26T22:15:24;9.50;99.90
40077;DHT22;25777;47.824;18.982;2023-03-26T22:18:00;9.40;99.90
40077;DHT22;25777;47.824;18.982;2023-03-26T22:20:26;9.40;99.90
40077;DHT22;25777;47.824;18.982;2023-03-26T22:22:52;9.40;99.90
40077;DHT22;25777;47.824;18.982;2023-03-26T22:25:21;9.30;99.90
40077;DHT22;25777;47.824;18.982;2023-03-26T22:27:49;9.30;99.90
40077;DHT22;25777;47.824;18.982;2023-03-26T22:30:16;9.40;99.90
40077;DHT22;25777;47.824;18.982;2023-03-26T22:32:43;9.40;99.90